Dowagiac, Michigan
Current Conditions -  °F | °C
As of 5:40 PM on Monday 24 Nov 2014 (Local Time) from KBEH Reporting Station
Light Snow Light Snow  
Wind Chill: 18°   Ceiling: 1600
Heat Index: 32°   Visibility: 4mi
Dew Point: 28°   Wind: 29mph
Humidity: 85%   Direction: 240°WSW
Pressure: 29.54"   Gusts: 45mph
Location:  41.98°N, 86.11°W
Report Text: KBEH 242240Z AUTO 24025G39KT 4SM -SN BR OVC016 00/M02 A2954 RMK AO2 PK WND 24039/2235 P0000 T00001022 $
Loading
Personal Weather Stations






























Interactive Weather Map New forecast layout! Learn more

10-Day Weather Forecast

Advertisements
Track Severe Weather on mobile